sensor_id;sensor_type;location;lat;lon;timestamp;pressure;altitude;pressure_sealevel;temperature;humidity
75460;BME280;64039;53.060;9.342;2023-07-31T00:01:11;100501.81;;;14.20;100.00
75460;BME280;64039;53.060;9.342;2023-07-31T00:03:36;100492.22;;;14.19;100.00
75460;BME280;64039;53.060;9.342;2023-07-31T00:06:02;100486.97;;;14.13;100.00
75460;BME280;64039;53.060;9.342;2023-07-31T00:08:27;100485.25;;;14.23;100.00
75460;BME280;64039;53.060;9.342;2023-07-31T00:10:53;100479.13;;;14.27;100.00
75460;BME280;64039;53.060;9.342;2023-07-31T00:13:18;100472.16;;;14.30;100.00
75460;BME280;64039;53.060;9.342;2023-07-31T00:15:44;100470.41;;;14.28;100.00
75460;BME280;64039;53.060;9.342;2023-07-31T00:18:09;100460.78;;;14.19;100.00
75460;BME280;64039;53.060;9.342;2023-07-31T00:20:35;100466.06;;;14.21;100.00
75460;BME280;64039;53.060;9.342;2023-07-31T00:23:00;100466.94;;;14.18;100.00
75460;BME280;64039;53.060;9.342;2023-07-31T00:25:26;100463.44;;;14.18;100.00
75460;BME280;64039;53.060;9.342;2023-07-31T00:27:51;100459.94;;;14.15;100.00
75460;BME280;64039;53.060;9.342;2023-07-31T00:30:17;100466.94;;;14.23;100.00
75460;BME280;64039;53.060;9.342;2023-07-31T00:32:42;100471.28;;;14.22;100.00
75460;BME280;64039;53.060;9.342;2023-07-31T00:35:08;100473.03;;;14.28;100.00
75460;BME280;64039;53.060;9.342;2023-07-31T00:37:33;100466.94;;;14.29;100.00
75460;BME280;64039;53.060;9.342;2023-07-31T00:39:58;100459.94;;;14.28;100.00
75460;BME280;64039;53.060;9.342;2023-07-31T00:42:24;100466.91;;;14.27;100.00
75460;BME280;64039;53.060;9.342;2023-07-31T00:44:50;100464.31;;;14.24;100.00
75460;BME280;64039;53.060;9.342;2023-07-31T00:47:15;100469.53;;;14.30;100.00
75460;BME280;64039;53.060;9.342;2023-07-31T00:49:41;100457.31;;;14.36;100.00
75460;BME280;64039;53.060;9.342;2023-07-31T00:52:07;100456.47;;;14.43;100.00
75460;BME280;64039;53.060;9.342;2023-07-31T00:54:33;100461.69;;;14.38;100.00
75460;BME280;64039;53.060;9.342;2023-07-31T00:56:59;100459.06;;;14.40;100.00
75460;BME280;64039;53.060;9.342;2023-07-31T00:59:25;100453.81;;;14.32;100.00
75460;BME280;64039;53.060;9.342;2023-07-31T01:01:51;100446.84;;;14.33;100.00
75460;BME280;64039;53.060;9.342;2023-07-31T01:04:17;100441.59;;;14.36;100.00
75460;BME280;64039;53.060;9.342;2023-07-31T01:07:01;100438.13;;;14.35;100.00
75460;BME280;64039;53.060;9.342;2023-07-31T01:09:49;100439.00;;;14.33;100.00
75460;BME280;64039;53.060;9.342;2023-07-31T01:12:20;100442.47;;;14.33;100.00
75460;BME280;64039;53.060;9.342;2023-07-31T01:15:01;100434.63;;;14.28;100.00
75460;BME280;64039;53.060;9.342;2023-07-31T01:17:28;100437.25;;;14.31;100.00
75460;BME280;64039;53.060;9.342;2023-07-31T01:19:55;100434.66;;;14.25;100.00
75460;BME280;64039;53.060;9.342;2023-07-31T01:31:13;100433.78;;;14.22;100.00
75460;BME280;64039;53.060;9.342;2023-07-31T01:33:40;100426.78;;;14.22;100.00
75460;BME280;64039;53.060;9.342;2023-07-31T01:36:06;100426.78;;;14.28;100.00
75460;BME280;64039;53.060;9.342;2023-07-31T01:38:32;100426.78;;;14.25;100.00
75460;BME280;64039;53.060;9.342;2023-07-31T01:40:59;100432.03;;;14.05;100.00
75460;BME280;64039;53.060;9.342;2023-07-31T01:43:24;100431.16;;;14.19;100.00
75460;BME280;64039;53.060;9.342;2023-07-31T01:45:50;100432.03;;;14.25;100.00
75460;BME280;64039;53.060;9.342;2023-07-31T01:48:15;100427.66;;;14.24;100.00
75460;BME280;64039;53.060;9.342;2023-07-31T01:50:40;100425.91;;;14.25;100.00
75460;BME280;64039;53.060;9.342;2023-07-31T01:53:06;100415.44;;;14.34;100.00
75460;BME280;64039;53.060;9.342;2023-07-31T01:55:32;100415.44;;;14.33;100.00
75460;BME280;64039;53.060;9.342;2023-07-31T01:57:57;100407.59;;;14.31;100.00
75460;BME280;64039;53.060;9.342;2023-07-31T02:00:23;100403.22;;;14.39;100.00
75460;BME280;64039;53.060;9.342;2023-07-31T02:02:48;100404.06;;;14.41;100.00
75460;BME280;64039;53.060;9.342;2023-07-31T02:05:13;100400.59;;;14.36;100.00
75460;BME280;64039;53.060;9.342;2023-07-31T02:07:39;100397.09;;;14.34;100.00
75460;BME280;64039;53.060;9.342;2023-07-31T02:10:05;100392.75;;;14.39;100.00
75460;BME280;64039;53.060;9.342;2023-07-31T02:12:30;100397.09;;;14.43;100.00
75460;BME280;64039;53.060;9.342;2023-07-31T02:14:57;100391.00;;;14.44;100.00
75460;BME280;64039;53.060;9.342;2023-07-31T02:17:22;100392.75;;;14.45;100.00
75460;BME280;64039;53.060;9.342;2023-07-31T02:19:48;100383.13;;;14.41;100.00
75460;BME280;64039;53.060;9.342;2023-07-31T02:22:13;100385.75;;;14.43;100.00
75460;BME280;64039;53.060;9.342;2023-07-31T02:24:39;100387.47;;;14.44;100.00
75460;BME280;64039;53.060;9.342;2023-07-31T02:27:05;100382.22;;;14.49;100.00
75460;BME280;64039;53.060;9.342;2023-07-31T02:29:30;100381.38;;;14.40;100.00
75460;BME280;64039;53.060;9.342;2023-07-31T02:31:56;100382.25;;;14.50;100.00
75460;BME280;64039;53.060;9.342;2023-07-31T02:34:21;100377.00;;;14.49;100.00
75460;BME280;64039;53.060;9.342;2023-07-31T02:36:47;100378.72;;;14.54;100.00
75460;BME280;64039;53.060;9.342;2023-07-31T02:39:12;100377.84;;;14.60;100.00
75460;BME280;64039;53.060;9.342;2023-07-31T02:41:37;100380.53;;;14.48;100.00
75460;BME280;64039;53.060;9.342;2023-07-31T02:44:03;100369.19;;;14.39;100.00
75460;BME280;64039;53.060;9.342;2023-07-31T02:46:28;100381.38;;;14.39;100.00
75460;BME280;64039;53.060;9.342;2023-07-31T02:48:54;100377.03;;;14.39;100.00
75460;BME280;64039;53.060;9.342;2023-07-31T02:51:19;100374.44;;;14.35;100.00
75460;BME280;64039;53.060;9.342;2023-07-31T02:53:47;100380.50;;;14.41;100.00
75460;BME280;64039;53.060;9.342;2023-07-31T02:56:13;100378.78;;;14.34;100.00
75460;BME280;64039;53.060;9.342;2023-07-31T02:58:38;100372.66;;;14.37;100.00
75460;BME280;64039;53.060;9.342;2023-07-31T03:01:04;100376.16;;;14.33;100.00
75460;BME280;64039;53.060;9.342;2023-07-31T03:03:29;100372.69;;;14.23;100.00
75460;BME280;64039;53.060;9.342;2023-07-31T03:05:55;100366.56;;;14.24;100.00
75460;BME280;64039;53.060;9.342;2023-07-31T03:08:20;100364.84;;;14.29;100.00
75460;BME280;64039;53.060;9.342;2023-07-31T03:10:46;100356.97;;;14.34;100.00
75460;BME280;64039;53.060;9.342;2023-07-31T03:13:11;100360.47;;;14.23;100.00
75460;BME280;64039;53.060;9.342;2023-07-31T03:15:37;100351.72;;;14.26;100.00
75460;BME280;64039;53.060;9.342;2023-07-31T03:18:02;100350.88;;;14.25;100.00
75460;BME280;64039;53.060;9.342;2023-07-31T03:20:28;100360.47;;;14.28;100.00
75460;BME280;64039;53.060;9.342;2023-07-31T03:22:53;100350.88;;;14.21;100.00
75460;BME280;64039;53.060;9.342;2023-07-31T03:25:19;100358.72;;;14.30;100.00
75460;BME280;64039;53.060;9.342;2023-07-31T03:27:44;100363.06;;;14.29;100.00
75460;BME280;64039;53.060;9.342;2023-07-31T03:30:10;100357.84;;;14.29;100.00
75460;BME280;64039;53.060;9.342;2023-07-31T03:32:35;100357.88;;;14.26;100.00
75460;BME280;64039;53.060;9.342;2023-07-31T03:35:01;100362.22;;;14.23;100.00
75460;BME280;64039;53.060;9.342;2023-07-31T03:37:27;100351.75;;;14.18;100.00
75460;BME280;64039;53.060;9.342;2023-07-31T03:39:52;100361.34;;;14.14;100.00
75460;BME280;64039;53.060;9.342;2023-07-31T03:42:18;100359.59;;;14.30;100.00
75460;BME280;64039;53.060;9.342;2023-07-31T03:44:43;100358.72;;;14.21;100.00
75460;BME280;64039;53.060;9.342;2023-07-31T03:47:08;100351.75;;;14.18;100.00
75460;BME280;64039;53.060;9.342;2023-07-31T03:49:34;100352.59;;;14.20;100.00
75460;BME280;64039;53.060;9.342;2023-07-31T03:51:59;100357.88;;;14.26;100.00
75460;BME280;64039;53.060;9.342;2023-07-31T03:54:25;100351.75;;;14.10;100.00
75460;BME280;64039;53.060;9.342;2023-07-31T03:56:50;100350.00;;;14.19;100.00
75460;BME280;64039;53.060;9.342;2023-07-31T03:59:16;100351.75;;;14.18;100.00
75460;BME280;64039;53.060;9.342;2023-07-31T04:01:41;100341.28;;;14.24;100.00
75460;BME280;64039;53.060;9.342;2023-07-31T04:04:07;100347.38;;;14.15;100.00
75460;BME280;64039;53.060;9.342;2023-07-31T04:06:32;100337.78;;;14.24;100.00
75460;BME280;64039;53.060;9.342;2023-07-31T04:08:58;100348.25;;;14.25;100.00
75460;BME280;64039;53.060;9.342;2023-07-31T04:11:23;100348.25;;;14.27;100.00
75460;BME280;64039;53.060;9.342;2023-07-31T04:13:49;100346.50;;;14.21;100.00
75460;BME280;64039;53.060;9.342;2023-07-31T04:16:14;100344.75;;;14.34;100.00
75460;BME280;64039;53.060;9.342;2023-07-31T04:18:40;100345.66;;;14.25;100.00
75460;BME280;64039;53.060;9.342;2023-07-31T04:21:05;100345.63;;;14.22;100.00
75460;BME280;64039;53.060;9.342;2023-07-31T04:23:31;100340.41;;;14.25;100.00
75460;BME280;64039;53.060;9.342;2023-07-31T04:25:56;100343.00;;;14.38;100.00
75460;BME280;64039;53.060;9.342;2023-07-31T04:28:22;100345.59;;;14.38;100.00
75460;BME280;64039;53.060;9.342;2023-07-31T04:30:47;100338.63;;;14.40;100.00
75460;BME280;64039;53.060;9.342;2023-07-31T04:33:13;100336.00;;;14.43;100.00
75460;BME280;64039;53.060;9.342;2023-07-31T04:35:38;100341.22;;;14.41;100.00
75460;BME280;64039;53.060;9.342;2023-07-31T04:38:04;100335.13;;;14.38;100.00
75460;BME280;64039;53.060;9.342;2023-07-31T04:40:32;100329.88;;;14.45;100.00
75460;BME280;64039;53.060;9.342;2023-07-31T04:42:58;100335.09;;;14.52;100.00
75460;BME280;64039;53.060;9.342;2023-07-31T04:45:23;100330.75;;;14.46;100.00
75460;BME280;64039;53.060;9.342;2023-07-31T04:47:49;100334.25;;;14.48;100.00
75460;BME280;64039;53.060;9.342;2023-07-31T04:50:14;100328.16;;;14.48;100.00
75460;BME280;64039;53.060;9.342;2023-07-31T04:52:40;100330.72;;;14.51;100.00
75460;BME280;64039;53.060;9.342;2023-07-31T04:55:06;100327.25;;;14.55;100.00
75460;BME280;64039;53.060;9.342;2023-07-31T04:57:31;100325.47;;;14.52;100.00
75460;BME280;64039;53.060;9.342;2023-07-31T04:59:57;100320.25;;;14.55;100.00
75460;BME280;64039;53.060;9.342;2023-07-31T05:02:22;100312.41;;;14.58;100.00
75460;BME280;64039;53.060;9.342;2023-07-31T05:04:48;100318.53;;;14.56;100.00
75460;BME280;64039;53.060;9.342;2023-07-31T05:07:13;100316.75;;;14.53;100.00
75460;BME280;64039;53.060;9.342;2023-07-31T05:09:39;100304.53;;;14.55;100.00
75460;BME280;64039;53.060;9.342;2023-07-31T05:12:05;100297.56;;;14.56;100.00
75460;BME280;64039;53.060;9.342;2023-07-31T05:14:31;100296.66;;;14.60;100.00
75460;BME280;64039;53.060;9.342;2023-07-31T05:16:56;100301.03;;;14.58;100.00
75460;BME280;64039;53.060;9.342;2023-07-31T05:19:22;100301.03;;;14.58;100.00
75460;BME280;64039;53.060;9.342;2023-07-31T05:21:47;100301.03;;;14.69;100.00
75460;BME280;64039;53.060;9.342;2023-07-31T05:24:13;100302.78;;;14.68;100.00
75460;BME280;64039;53.060;9.342;2023-07-31T05:26:38;100304.50;;;14.77;100.00
75460;BME280;64039;53.060;9.342;2023-07-31T05:29:04;100299.31;;;14.68;100.00
75460;BME280;64039;53.060;9.342;2023-07-31T05:31:29;100295.75;;;14.78;100.00
75460;BME280;64039;53.060;9.342;2023-07-31T05:33:55;100294.84;;;14.85;100.00
75460;BME280;64039;53.060;9.342;2023-07-31T05:36:20;100301.00;;;14.80;100.00
75460;BME280;64039;53.060;9.342;2023-07-31T05:38:46;100298.34;;;14.83;100.00
75460;BME280;64039;53.060;9.342;2023-07-31T05:41:14;100299.16;;;14.97;100.00
75460;BME280;64039;53.060;9.342;2023-07-31T05:43:40;100294.78;;;14.94;100.00
75460;BME280;64039;53.060;9.342;2023-07-31T05:46:06;100292.19;;;14.96;100.00
75460;BME280;64039;53.060;9.342;2023-07-31T05:48:32;100291.38;;;14.83;100.00
75460;BME280;64039;53.060;9.342;2023-07-31T05:50:59;100295.72;;;14.84;100.00
75460;BME280;64039;53.060;9.342;2023-07-31T05:53:25;100284.38;;;14.85;100.00
75460;BME280;64039;53.060;9.342;2023-07-31T05:55:50;100281.72;;;14.90;100.00
75460;BME280;64039;53.060;9.342;2023-07-31T05:58:15;100274.69;;;15.00;100.00
75460;BME280;64039;53.060;9.342;2023-07-31T06:00:41;100269.47;;;14.98;100.00
75460;BME280;64039;53.060;9.342;2023-07-31T06:03:07;100262.47;;;14.94;100.00
75460;BME280;64039;53.060;9.342;2023-07-31T06:05:32;100270.22;;;15.14;100.00
75460;BME280;64039;53.060;9.342;2023-07-31T06:07:58;100270.22;;;15.14;100.00
75460;BME280;64039;53.060;9.342;2023-07-31T06:10:23;100265.84;;;15.16;100.00
75460;BME280;64039;53.060;9.342;2023-07-31T06:12:49;100253.66;;;15.11;100.00
75460;BME280;64039;53.060;9.342;2023-07-31T06:15:14;100251.88;;;15.14;100.00
75460;BME280;64039;53.060;9.342;2023-07-31T06:17:40;100253.56;;;15.21;100.00
75460;BME280;64039;53.060;9.342;2023-07-31T06:20:06;100250.97;;;15.17;100.00
75460;BME280;64039;53.060;9.342;2023-07-31T06:22:32;100253.59;;;15.20;100.00
75460;BME280;64039;53.060;9.342;2023-07-31T06:24:58;100248.38;;;15.15;100.00
75460;BME280;64039;53.060;9.342;2023-07-31T06:27:24;100247.50;;;15.16;100.00
75460;BME280;64039;53.060;9.342;2023-07-31T06:29:49;100251.88;;;15.14;100.00
75460;BME280;64039;53.060;9.342;2023-07-31T06:32:15;100245.81;;;15.06;100.00
75460;BME280;64039;53.060;9.342;2023-07-31T06:34:40;100253.66;;;15.06;100.00
75460;BME280;64039;53.060;9.342;2023-07-31T06:37:06;100249.22;;;15.16;100.00
75460;BME280;64039;53.060;9.342;2023-07-31T06:39:31;100246.56;;;15.23;100.00
75460;BME280;64039;53.060;9.342;2023-07-31T06:41:57;100250.06;;;15.25;100.00
75460;BME280;64039;53.060;9.342;2023-07-31T06:44:22;100250.06;;;15.25;100.00
75460;BME280;64039;53.060;9.342;2023-07-31T06:46:47;100252.63;;;15.29;100.00
75460;BME280;64039;53.060;9.342;2023-07-31T06:49:13;100240.44;;;15.26;100.00
75460;BME280;64039;53.060;9.342;2023-07-31T06:51:41;100239.50;;;15.32;100.00
75460;BME280;64039;53.060;9.342;2023-07-31T06:54:08;100233.47;;;15.22;100.00
75460;BME280;64039;53.060;9.342;2023-07-31T06:56:33;100236.03;;;15.28;100.00
75460;BME280;64039;53.060;9.342;2023-07-31T06:58:59;100228.97;;;15.38;100.00
75460;BME280;64039;53.060;9.342;2023-07-31T07:01:24;100235.09;;;15.38;100.00
75460;BME280;64039;53.060;9.342;2023-07-31T07:03:49;100229.81;;;15.43;100.00
75460;BME280;64039;53.060;9.342;2023-07-31T07:06:19;100229.00;;;15.35;100.00
75460;BME280;64039;53.060;9.342;2023-07-31T07:08:44;100229.88;;;15.35;100.00
75460;BME280;64039;53.060;9.342;2023-07-31T07:11:10;100219.31;;;15.41;100.00
75460;BME280;64039;53.060;9.342;2023-07-31T07:13:35;100210.56;;;15.43;100.00
75460;BME280;64039;53.060;9.342;2023-07-31T07:16:01;100215.88;;;15.39;100.00
75460;BME280;64039;53.060;9.342;2023-07-31T07:18:26;100212.34;;;15.42;100.00
75460;BME280;64039;53.060;9.342;2023-07-31T07:20:53;100211.44;;;15.41;100.00
75460;BME280;64039;53.060;9.342;2023-07-31T07:23:19;100210.63;;;15.39;100.00
75460;BME280;64039;53.060;9.342;2023-07-31T07:25:46;100211.38;;;15.52;100.00
75460;BME280;64039;53.060;9.342;2023-07-31T07:28:11;100209.63;;;15.53;100.00
75460;BME280;64039;53.060;9.342;2023-07-31T07:30:37;100207.81;;;15.58;100.00
75460;BME280;64039;53.060;9.342;2023-07-31T07:33:02;100203.44;;;15.59;100.00
75460;BME280;64039;53.060;9.342;2023-07-31T07:35:28;100212.22;;;15.56;100.00
75460;BME280;64039;53.060;9.342;2023-07-31T07:37:53;100208.75;;;15.51;100.00
75460;BME280;64039;53.060;9.342;2023-07-31T07:40:20;100205.34;;;15.44;100.00
75460;BME280;64039;53.060;9.342;2023-07-31T07:42:46;100211.34;;;15.57;100.00
75460;BME280;64039;53.060;9.342;2023-07-31T07:45:12;100208.72;;;15.57;100.00
75460;BME280;64039;53.060;9.342;2023-07-31T07:47:40;100211.28;;;15.63;100.00
75460;BME280;64039;53.060;9.342;2023-07-31T07:50:06;100205.22;;;15.53;100.00
75460;BME280;64039;53.060;9.342;2023-07-31T07:52:31;100197.41;;;15.49;100.00
75460;BME280;64039;53.060;9.342;2023-07-31T07:54:57;100201.72;;;15.56;100.00
75460;BME280;64039;53.060;9.342;2023-07-31T07:57:22;100197.25;;;15.66;100.00
75460;BME280;64039;53.060;9.342;2023-07-31T07:59:48;100196.34;;;15.71;100.00
75460;BME280;64039;53.060;9.342;2023-07-31T08:02:13;100193.81;;;15.62;100.00
75460;BME280;64039;53.060;9.342;2023-07-31T08:04:39;100201.69;;;15.59;100.00
75460;BME280;64039;53.060;9.342;2023-07-31T08:07:04;100199.03;;;15.64;100.00
75460;BME280;64039;53.060;9.342;2023-07-31T08:09:30;100196.53;;;15.48;100.00
75460;BME280;64039;53.060;9.342;2023-07-31T08:11:56;100197.41;;;15.50;100.00
75460;BME280;64039;53.060;9.342;2023-07-31T08:14:27;100196.28;;;15.75;100.00
75460;BME280;64039;53.060;9.342;2023-07-31T08:16:52;100191.94;;;15.72;100.00
75460;BME280;64039;53.060;9.342;2023-07-31T08:19:18;100190.22;;;15.69;100.00
75460;BME280;64039;53.060;9.342;2023-07-31T08:21:43;100184.94;;;15.74;100.00
75460;BME280;64039;53.060;9.342;2023-07-31T08:24:09;100178.91;;;15.64;100.00
75460;BME280;64039;53.060;9.342;2023-07-31T08:26:34;100183.22;;;15.70;100.00
75460;BME280;64039;53.060;9.342;2023-07-31T08:29:00;100170.06;;;15.73;100.00
75460;BME280;64039;53.060;9.342;2023-07-31T08:31:25;100174.41;;;15.76;100.00
75460;BME280;64039;53.060;9.342;2023-07-31T08:33:52;100176.91;;;15.91;100.00
75460;BME280;64039;53.060;9.342;2023-07-31T08:36:17;100179.56;;;15.88;100.00
75460;BME280;64039;53.060;9.342;2023-07-31T08:38:44;100172.56;;;15.88;100.00
75460;BME280;64039;53.060;9.342;2023-07-31T08:41:10;100161.09;;;15.97;100.00
75460;BME280;64039;53.060;9.342;2023-07-31T08:43:36;100170.78;;;15.94;100.00
75460;BME280;64039;53.060;9.342;2023-07-31T08:46:03;100167.13;;;16.04;100.00
75460;BME280;64039;53.060;9.342;2023-07-31T08:48:29;100170.72;;;15.97;100.00
75460;BME280;64039;53.060;9.342;2023-07-31T08:50:55;100167.94;;;16.11;100.00
75460;BME280;64039;53.060;9.342;2023-07-31T08:53:20;100163.50;;;16.14;100.00
75460;BME280;64039;53.060;9.342;2023-07-31T08:55:46;100166.94;;;16.21;100.00
75460;BME280;64039;53.060;9.342;2023-07-31T08:58:13;100159.03;;;16.24;100.00
75460;BME280;64039;53.060;9.342;2023-07-31T09:00:40;100166.03;;;16.24;100.00
75460;BME280;64039;53.060;9.342;2023-07-31T09:03:12;100168.59;;;16.28;100.00
75460;BME280;64039;53.060;9.342;2023-07-31T09:05:44;100166.19;;;16.11;100.00
75460;BME280;64039;53.060;9.342;2023-07-31T09:08:12;100155.38;;;16.34;100.00
75460;BME280;64039;53.060;9.342;2023-07-31T09:10:42;100162.44;;;16.32;100.00
75460;BME280;64039;53.060;9.342;2023-07-31T09:13:08;100165.94;;;16.31;100.00
75460;BME280;64039;53.060;9.342;2023-07-31T09:15:34;100154.47;;;16.37;100.00
75460;BME280;64039;53.060;9.342;2023-07-31T09:18:01;100156.78;;;16.62;100.00
75460;BME280;64039;53.060;9.342;2023-07-31T09:20:27;100154.28;;;16.53;100.00
75460;BME280;64039;53.060;9.342;2023-07-31T09:22:53;100160.34;;;16.56;100.00
75460;BME280;64039;53.060;9.342;2023-07-31T09:25:23;100157.66;;;16.59;100.00
75460;BME280;64039;53.060;9.342;2023-07-31T09:28:06;100160.63;;;16.36;100.00
75460;BME280;64039;53.060;9.342;2023-07-31T09:30:46;100154.34;;;16.48;100.00
75460;BME280;64039;53.060;9.342;2023-07-31T09:33:13;100164.03;;;16.44;100.00
75460;BME280;64039;53.060;9.342;2023-07-31T09:35:38;100157.63;;;16.62;100.00
75460;BME280;64039;53.060;9.342;2023-07-31T09:38:08;100148.81;;;16.68;100.00
75460;BME280;64039;53.060;9.342;2023-07-31T09:40:38;100147.25;;;16.53;100.00
75460;BME280;64039;53.060;9.342;2023-07-31T09:43:09;100150.66;;;16.58;100.00
75460;BME280;64039;53.060;9.342;2023-07-31T09:45:41;100148.97;;;16.56;100.00
75460;BME280;64039;53.060;9.342;2023-07-31T09:48:15;100148.97;;;16.57;100.00
75460;BME280;64039;53.060;9.342;2023-07-31T09:50:47;100138.50;;;16.51;100.00
75460;BME280;64039;53.060;9.342;2023-07-31T09:53:14;100135.06;;;16.49;100.00
75460;BME280;64039;53.060;9.342;2023-07-31T09:55:41;100136.72;;;16.55;100.00
75460;BME280;64039;53.060;9.342;2023-07-31T09:58:09;100127.25;;;16.43;100.00
75460;BME280;64039;53.060;9.342;2023-07-31T10:00:35;100135.97;;;16.45;100.00
75460;BME280;64039;53.060;9.342;2023-07-31T10:03:04;100131.69;;;16.41;100.00
75460;BME280;64039;53.060;9.342;2023-07-31T10:05:50;100128.09;;;16.45;100.00
75460;BME280;64039;53.060;9.342;2023-07-31T10:08:18;100129.03;;;16.42;100.00
75460;BME280;64039;53.060;9.342;2023-07-31T10:10:45;100125.56;;;16.39;100.00
75460;BME280;64039;53.060;9.342;2023-07-31T10:13:12;100118.78;;;16.22;100.00
75460;BME280;64039;53.060;9.342;2023-07-31T10:15:38;100118.59;;;16.34;100.00
75460;BME280;64039;53.060;9.342;2023-07-31T10:18:06;100116.03;;;16.31;100.00
75460;BME280;64039;53.060;9.342;2023-07-31T10:20:31;100111.69;;;16.29;100.00
75460;BME280;64039;53.060;9.342;2023-07-31T10:22:57;100109.78;;;16.40;100.00
75460;BME280;64039;53.060;9.342;2023-07-31T10:25:26;100110.38;;;16.61;100.00
75460;BME280;64039;53.060;9.342;2023-07-31T10:27:53;100107.56;;;16.72;100.00
75460;BME280;64039;53.060;9.342;2023-07-31T10:30:24;100109.94;;;16.87;100.00
75460;BME280;64039;53.060;9.342;2023-07-31T10:32:51;100108.06;;;16.97;100.00
75460;BME280;64039;53.060;9.342;2023-07-31T10:35:18;100098.50;;;16.90;100.00
75460;BME280;64039;53.060;9.342;2023-07-31T10:37:43;100099.31;;;16.96;100.00
75460;BME280;64039;53.060;9.342;2023-07-31T10:40:25;100089.66;;;16.99;100.00
75460;BME280;64039;53.060;9.342;2023-07-31T10:42:57;100086.97;;;17.02;100.00
75460;BME280;64039;53.060;9.342;2023-07-31T10:45:35;100081.94;;;16.86;100.00
75460;BME280;64039;53.060;9.342;2023-07-31T10:48:16;100081.78;;;16.99;100.00
75460;BME280;64039;53.060;9.342;2023-07-31T10:50:54;100074.63;;;17.05;100.00
75460;BME280;64039;53.060;9.342;2023-07-31T10:53:24;100071.66;;;17.24;100.00
75460;BME280;64039;53.060;9.342;2023-07-31T10:55:49;100070.91;;;17.19;100.00
75460;BME280;64039;53.060;9.342;2023-07-31T10:58:20;100065.56;;;17.23;100.00
75460;BME280;64039;53.060;9.342;2023-07-31T11:00:46;100063.56;;;17.35;100.00
75460;BME280;64039;53.060;9.342;2023-07-31T11:03:17;100064.53;;;17.31;100.00
75460;BME280;64039;53.060;9.342;2023-07-31T11:08:28;100061.16;;;17.24;100.00
75460;BME280;64039;53.060;9.342;2023-07-31T11:13:28;100050.91;;;17.08;100.00
75460;BME280;64039;53.060;9.342;2023-07-31T11:15:54;100048.31;;;17.07;100.00
75460;BME280;64039;53.060;9.342;2023-07-31T11:18:19;100050.78;;;17.16;100.00
75460;BME280;64039;53.060;9.342;2023-07-31T11:20:45;100051.53;;;17.24;100.00
75460;BME280;64039;53.060;9.342;2023-07-31T11:23:11;100051.06;;;16.99;100.00
75460;BME280;64039;53.060;9.342;2023-07-31T11:25:39;100045.56;;;17.13;100.00
75460;BME280;64039;53.060;9.342;2023-07-31T11:28:12;100048.81;;;17.27;100.00
75460;BME280;64039;53.060;9.342;2023-07-31T11:30:39;100054.03;;;17.31;100.00
75460;BME280;64039;53.060;9.342;2023-07-31T11:33:06;100041.16;;;17.13;100.00
75460;BME280;64039;53.060;9.342;2023-07-31T11:35:33;100043.84;;;17.12;100.00
75460;BME280;64039;53.060;9.342;2023-07-31T11:38:00;100035.81;;;17.20;100.00
75460;BME280;64039;53.060;9.342;2023-07-31T11:40:25;100035.69;;;17.26;100.00
75460;BME280;64039;53.060;9.342;2023-07-31T11:42:58;100035.19;;;17.05;100.00
75460;BME280;64039;53.060;9.342;2023-07-31T11:45:27;100035.06;;;17.13;100.00
75460;BME280;64039;53.060;9.342;2023-07-31T11:47:56;100036.63;;;17.22;100.00
75460;BME280;64039;53.060;9.342;2023-07-31T11:50:23;100036.63;;;17.22;100.00
75460;BME280;64039;53.060;9.342;2023-07-31T11:52:58;100041.81;;;17.26;100.00
75460;BME280;64039;53.060;9.342;2023-07-31T11:55:24;100034.78;;;17.28;100.00
75460;BME280;64039;53.060;9.342;2023-07-31T11:57:51;100034.41;;;17.47;100.00
75460;BME280;64039;53.060;9.342;2023-07-31T12:00:17;100018.53;;;17.50;100.00
75460;BME280;64039;53.060;9.342;2023-07-31T12:02:43;100024.75;;;17.49;100.00
75460;BME280;64039;53.060;9.342;2023-07-31T12:05:12;100028.31;;;17.45;100.00
75460;BME280;64039;53.060;9.342;2023-07-31T12:07:50;100027.59;;;17.37;100.00
75460;BME280;64039;53.060;9.342;2023-07-31T12:10:31;100025.22;;;17.23;100.00
75460;BME280;64039;53.060;9.342;2023-07-31T12:13:00;100018.22;;;17.23;100.00
75460;BME280;64039;53.060;9.342;2023-07-31T12:15:44;100021.88;;;17.16;100.00
75460;BME280;64039;53.060;9.342;2023-07-31T12:18:11;100025.25;;;17.21;100.00
75460;BME280;64039;53.060;9.342;2023-07-31T12:20:42;100022.53;;;17.26;100.00
75460;BME280;64039;53.060;9.342;2023-07-31T12:23:13;100019.63;;;17.41;100.00
75460;BME280;64039;53.060;9.342;2023-07-31T12:25:39;100010.06;;;17.36;100.00
75460;BME280;64039;53.060;9.342;2023-07-31T12:28:05;100018.72;;;17.42;100.00
75460;BME280;64039;53.060;9.342;2023-07-31T12:30:34;100014.88;;;17.59;100.00
75460;BME280;64039;53.060;9.342;2023-07-31T12:33:12;100012.00;;;17.70;100.00
75460;BME280;64039;53.060;9.342;2023-07-31T12:35:40;100001.81;;;17.54;100.00
75460;BME280;64039;53.060;9.342;2023-07-31T12:38:07;100000.13;;;17.50;100.00
75460;BME280;64039;53.060;9.342;2023-07-31T12:40:32;99998.34;;;17.52;100.00
75460;BME280;64039;53.060;9.342;2023-07-31T12:43:01;99993.09;;;17.52;100.00
75460;BME280;64039;53.060;9.342;2023-07-31T12:45:27;99990.63;;;17.44;100.00
75460;BME280;64039;53.060;9.342;2023-07-31T12:47:53;99990.97;;;17.70;100.00
75460;BME280;64039;53.060;9.342;2023-07-31T12:50:19;99993.63;;;17.68;100.00
75460;BME280;64039;53.060;9.342;2023-07-31T12:52:44;99991.50;;;17.86;100.00